Hampton Bays, New York
Current Conditions -  °F | °C
As of 12:53 PM on Friday 24 Oct 2014 (Local Time) from KFOK Reporting Station
Overcast Overcast  
Wind Chill: 54°   Ceiling: 2400
Heat Index: 54°   Visibility: 10mi
Dew Point: 46°   Wind: 10mph
Humidity: 75%   Direction: 320°NW
Pressure: 29.76"   Gusts: 18mph
Location:  40.87°N, 72.52°W
Report Text: KFOK 241653Z 32009G16KT 10SM OVC024 12/08 A2976 RMK AO2 SLP077 T01220078
Loading
Personal Weather Stations






























Interactive Weather Map
Tropical Storm Tracking
New forecast layout! Learn more

10-Day Weather Forecast

Advertisements
Track Severe Weather on mobile